Station info - map view · info · telemetry · weather · raw · status · beacons · messages · bulletins · browse · moving · my account
Callsign, ship name or locator: Clear       
It is possible to search using wildcards (*?) after a prefix. Example: OH*
APRS station WO7V-9 - show graphs
Map loading...
Mic-E message: En route
Location: 42°12.20' N 121°43.70' W - locator CN92DE28OT - show map - static map
0.5 miles Southeast bearing 118° from Altamont, Klamath County, Oregon, United States [?]
3.1 miles Southeast bearing 119° from Klamath Falls, Klamath County, Oregon, United States
59.2 miles East bearing 98° from Medford, Jackson County, Oregon, United States
Last position: 2021-06-13 16:54:17 EDT (1d 18h45m ago)
2021-06-13 13:54:17 PDT local time at Altamont, United States [?]
Altitude: 4131 ft
Course: 305°
Speed: 1 MPH
Device: Yaesu: FTM-400DR (rig)
Last path: WO7V-9>TR1RRP via WIDE1-1,WIDE2-1,qAR,STUKEL (good)
Positions stored: 2773
Packet rate: 465 seconds between packets on average during 22326 seconds.
Other SSIDs: WO7V-10 WO7V-5 WO7V-7
Stations near current position of WO7V-9 - show more
callsign distance last heard - EDT      callsign distance last heard - EDT
WD9HFT-100.6 miles 297°2021-06-15 11:35:57 N6KV-10.8 miles 156°2021-06-14 15:27:40
WA7YPR-30.8 miles 283°2021-06-15 11:39:18 AG7FR-90.9 miles 283°2021-06-15 11:39:30
K7TUM-50.9 miles 88°2021-05-22 03:23:51 KK6GXG-101.0 miles 266°2021-06-02 00:04:33
KG7UL-71.2 miles 290°2021-06-14 14:36:13 KJ7SYX-81.3 miles 182°2021-06-14 22:22:46
WB7EIG-51.4 miles 210°2021-06-15 11:37:42 WB7EIG-81.4 miles 210°2021-06-09 23:36:11
WAWYPR-31.4 miles 210°2021-05-23 06:11:42 KJ7YSO-71.6 miles 102°2021-05-28 21:12:07
KJ7KWR-71.6 miles 102°2021-05-31 16:09:21 DW93011.6 miles 194°2021-06-15 11:35:17
AI7FO B1.6 miles 183°2021-06-15 11:38:44 AI7FO-B1.6 miles 183°2021-06-15 11:38:54
AI7FO-N1.6 miles 183°2021-06-15 11:38:58 FW40811.7 miles 19°2021-06-15 11:36:16
AG7FR-81.8 miles 21°2021-06-14 16:34:48 KD6RRR-71.9 miles 141°2021-06-12 14:29:48
Stations which heard WO7V-9 directly on radio –
callsign pkts first heard - EDT last heard longest (tx => rx) longest at - EDT
N3EG 2 2021-06-12 22:53:11 2021-06-12 23:20:35 CN86NC > CN86MD 6.6 miles 289° 2021-06-12 22:53:11
KFALLS 16 2021-06-11 10:53:13 2021-06-13 16:38:47 CN92BR > CN92AB 45.5 miles 188° 2021-06-13 15:57:49
STUKEL 19 2021-06-11 10:51:20 2021-06-13 16:54:17 CN92BK > CN92EC 24.7 miles 154° 2021-06-13 16:17:49
IDIOTV 1 2021-06-12 17:40:02 2021-06-12 17:40:02 CN85PV > CN85HP 36.8 miles 244° 2021-06-12 17:40:02
EUGENE 10 2021-06-12 12:24:34 2021-06-13 14:23:17 CN83SR > CN84KC 42.7 miles 307° 2021-06-12 12:24:34
K7LWV 3 2021-06-13 12:03:22 2021-06-13 12:18:26 CN84LS > CN84IV 17.7 miles 308° 2021-06-13 12:18:26
W7IG 2 2021-06-13 11:48:21 2021-06-13 11:58:21 CN85OF > CN85HC 28.5 miles 257° 2021-06-13 11:48:21
DIPK 1 2021-06-13 15:27:49 2021-06-13 15:27:49 CN93CE > CN92OX 50.1 miles 105° 2021-06-13 15:27:49
W7SRA 2 2021-06-12 13:44:50 2021-06-13 12:33:30 CN84LM > CN84KU 23.7 miles 354° 2021-06-13 12:33:30
AE7TO-1 2 2021-06-12 13:29:37 2021-06-13 13:23:09 CN84LB > CN84HO 42.2 miles 333° 2021-06-13 13:23:09
WLTRVL 2 2021-06-12 12:49:34 2021-06-13 12:43:34 CN84LI > CN84OB 21.6 miles 148° 2021-06-13 12:43:34
BALDPK 4 2021-06-12 14:30:10 2021-06-12 16:55:22 CN85PJ > CN85LJ 14.4 miles 267° 2021-06-12 14:37:12
BEAVRT 11 2021-06-12 14:35:09 2021-06-13 11:38:21 CN85OI > CN85OK 6.2 miles 324° 2021-06-13 11:38:21
NICOLI 4 2021-06-12 22:58:43 2021-06-13 10:43:22 CN86NC > CN86GC 28.6 miles 266° 2021-06-12 22:58:43
AK9E-1 2 2021-06-12 18:00:05 2021-06-12 22:59:49 CN86NC > CN86HE 25.9 miles 278° 2021-06-12 22:59:49
MEISNR 1 2021-06-13 09:39:07 2021-06-13 09:39:07 CN86ND > CN85MX 13.0 miles 201° 2021-06-13 09:39:07
KG7BZ 5 2021-06-12 13:39:38 2021-06-13 12:23:26 CN84MV > CN84PK 35.2 miles 157° 2021-06-12 13:59:50
NPLNS 2 2021-06-12 14:20:06 2021-06-13 11:33:22 CN85OE > CN85MO 28.7 miles 344° 2021-06-12 14:20:06
W7LT 3 2021-06-12 17:29:58 2021-06-13 11:43:22 CN85NX > CN85RK 40.0 miles 159° 2021-06-13 10:53:23
WLKMTN 1 2021-06-13 15:08:50 2021-06-13 15:08:50 CN93CJ > CN93DH 7.3 miles 141° 2021-06-13 15:08:50
N7QME-3 1 2021-06-13 11:18:22 2021-06-13 11:18:22 CN85PP > CN85QO 1.8 miles 156° 2021-06-13 11:18:22
BALLPT 8 2021-06-12 10:13:54 2021-06-13 16:22:49 CN92CF > CN92AJ 17.2 miles 317° 2021-06-12 10:13:54
VCAPK 1 2021-06-12 18:05:05 2021-06-12 18:05:05 CN86NC > CN86KX 60.5 miles 347° 2021-06-12 18:05:05
K0INK-5 1 2021-06-12 14:15:06 2021-06-12 14:15:06 CN85ND > CN85MI 15.9 miles 344° 2021-06-12 14:15:06
MARBLE 2 2021-06-12 17:05:27 2021-06-13 11:28:22 CN85PL > CN86WC 52.3 miles 32° 2021-06-12 17:05:27
BULLMT 1 2021-06-12 18:10:05 2021-06-12 18:10:05 CN86NC > CN85OK 48.6 miles 179° 2021-06-12 18:10:05
WA7RGO-10 3 2021-06-12 14:04:54 2021-06-13 12:28:30 CN84LO > CN85MI 52.3 miles 8° 2021-06-13 12:28:30
AI7NC-10 1 2021-06-12 13:14:38 2021-06-12 13:14:38 CN84LE > CN84KC 7.7 miles 219° 2021-06-12 13:14:38
HAPPYV 1 2021-06-12 17:19:57 2021-06-12 17:19:57 CN85PO > CN85RL 12.8 miles 141° 2021-06-12 17:19:57
FINLEY 2 2021-06-12 11:32:10 2021-06-12 11:36:06 CN93CI > CN93GP 26.9 miles 40° 2021-06-12 11:32:10
CRSWLL 5 2021-06-12 12:54:33 2021-06-13 13:25:00 CN84LC > CN83LV 12.3 miles 175° 2021-06-13 12:58:45
K7BCX-10 1 2021-06-13 11:23:22 2021-06-13 11:23:22 CN85PN > CN85PN 1.1 miles 20° 2021-06-13 11:23:22

Only position packets which were originated by the station are shown here. The range statistics show some extra long hops, because some digipeaters do not correctly add themselves to the digipeater path. Please check the raw packets.
About this site
This page shows real-time information collected from the Automatic Position Reporting System Internet network (APRS-IS). APRS is used by amateur (ham) radio operators to transmit real-time position information, weather data, telemetry and messages over the radio. A vehicle equipped with a GPS receiver, a VHF transmitter or HF transceiver and a small computer device called a tracker transmits it's location, speed and course in a small data packet, which is then received by a nearby iGate receiving site which forwards the packet on the Internet. Systems connected to the Internet can send information on the APRS-IS without a radio transmitter, or collect and display information transmitted anywhere in the world.
User guide · FAQ · Blog · Discussion group · Linking to aprs.fi · AIS sites · Service status · Database statistics · Advertising on aprs.fi · Technical details · API · Change log · Planned changes · Credits and thanks · Terms Of Service · iPhone/iPad APRS